• Join FlightAware (Why Join?)
  • Login
  • US Flag 
Gobble Gobble! 
12:46PM EST


 

Airport Tracker/Info


-or-


 

Live Flight TrackerFlight Track Log ✈ FLG3429 ✈ 14-Jun-2013 ✈ KPSC - KMSP

Flight Track Log - Related Links

Times and Time Zones

All times are in EDT time to prevent confusion due to time zone crossing. See the FLG3429 flight status page for this flight to view local times or setup timezone preferences in your user account.

Time Position Orientation Groundspeed Altitude Reporting Facility
EDT Latitude Longitude Course Direction KTS MPH feet Rate Location/Type
04:16PM 46.2228 -119.1764 72° East 188 216 37,000  Level Seattle Center
04:17PM 46.1742 -119.2417 223° Southwest 231 266 4,500 -14,640 Descending Seattle Center
04:18PM 46.3698 -118.6134 73° East  Level FlightAware Approximate
04:18PM 46.1192 -119.1831 144° Southeast 278 320 7,100  Level Seattle Center
04:19PM 46.4064 -118.4426 73° East  Level FlightAware Approximate
04:19PM 46.1400 -119.0708 75° East 288 331 9,700  Level Seattle Center
04:20PM 46.4434 -118.2718 72° East  Level FlightAware Approximate
04:20PM 46.1714 -118.9506 69° East 309 356 11,500  Level Seattle Center
04:21PM 46.4814 -118.1013 72° East  Level FlightAware Approximate
04:21PM 46.1861 -118.8111 81° East 334 384 13,600  Level Seattle Center
04:22PM 46.2047 -118.6672 79° East 355 409 15,800 1,980 Climbing Seattle Center
04:23PM 46.2253 -118.5086 79° East 370 426 17,700 1,740 Climbing Seattle Center
04:24PM 46.2428 -118.3522 81° East 391 450 19,400 1,740 Climbing Seattle Center
04:25PM 46.2617 -118.1936 80° East 399 459 21,300 1,620 Climbing Seattle Center
04:26PM 46.2806 -118.0314 80° East 409 471 22,800 1,440 Climbing Seattle Center
04:27PM 46.2997 -117.8669 80° East 416 479 24,300 1,380 Climbing Seattle Center
04:28PM 46.3186 -117.6989 81° East 424 488 25,700 1,380 Climbing Seattle Center
04:29PM 46.3417 -117.4908 81° East 437 503 27,200 1,320 Climbing Seattle Center
04:30PM 46.3619 -117.3161 80° East 442 509 28,500 1,320 Climbing Seattle Center
04:31PM 46.3803 -117.1403 81° East 444 511 30,000 1,320 Climbing Seattle Center
04:32PM 46.3992 -116.9672 81° East 439 505 31,200 1,140 Climbing Seattle Center
04:33PM 46.4178 -116.7894 81° East 447 514 32,400 780 Climbing Seattle Center
04:34PM 46.4358 -116.6111 82° East 450 518 32,900 780 Climbing Seattle Center
04:35PM 46.4561 -116.4258 81° East 468 539 34,000 720 Climbing Seattle Center
04:36PM 46.4742 -116.2408 82° East 464 534 34,400 540 Climbing Seattle Center
04:37PM 46.4928 -116.0544 82° East 469 540 35,100 780 Climbing Seattle Center
04:38PM 46.5144 -115.8306 82° East 469 540 36,000 840 Climbing Seattle Center
04:39PM 46.5322 -115.6389 82° East 469 540 36,900 480 Climbing Seattle Center
04:40PM 46.5500 -115.4586 82° East 466 536 37,000  Climbing Seattle Center
04:42PM 46.5667 -115.2678 83° East 475 547 37,000  Level Seattle Center
04:43PM 46.5842 -115.0736 82° East 485 558 37,000  Level Seattle Center
04:44PM 46.6031 -114.8622 83° East 477 549 37,000  Level Seattle Center
04:44PM 46.6072 -114.8242 81° East 476 548 37,000  Level Salt Lake Center
04:45PM 46.6236 -114.6364 83° East 472 543 37,000  Level Salt Lake Center
04:46PM 46.6386 -114.4519 83° East 464 534 37,000  Level Salt Lake Center
04:47PM 46.6544 -114.2653 83° East 466 536 37,000  Level Salt Lake Center
04:48PM 46.6697 -114.0775 83° East 469 540 37,000  Level Salt Lake Center
04:49PM 46.6872 -113.8500 84° East 474 545 37,000  Level Salt Lake Center
04:50PM 46.7028 -113.6594 83° East 475 547 37,000 -60 Level Salt Lake Center
04:51PM 46.7172 -113.4703 84° East 474 545 36,900  Descending Salt Lake Center
04:52PM 46.7311 -113.2786 84° East 478 550 37,000  Climbing Salt Lake Center
04:53PM 46.7450 -113.0883 84° East 477 549 37,000  Level Salt Lake Center
04:54PM 46.7608 -112.8728 84° East 479 551 37,000  Level Salt Lake Center
04:55PM 46.7750 -112.6781 84° East 485 558 37,000  Level Salt Lake Center
04:56PM 46.7883 -112.4819 84° East 488 562 37,000  Level Salt Lake Center
04:57PM 46.8008 -112.2831 85° East 492 566 37,000  Level Salt Lake Center
04:58PM 46.8158 -112.0481 85° East 490 564 37,000  Level Salt Lake Center
04:59PM 46.8275 -111.8506 85° East 490 564 37,000  Level Salt Lake Center
05:00PM 46.8397 -111.6550 85° East 488 562 37,000 -60 Level Salt Lake Center
05:01PM 46.8500 -111.4567 86° East 491 565 36,900 -60 Descending Salt Lake Center
05:02PM 46.8622 -111.2600 85° East 491 565 36,900  Level Salt Lake Center
05:03PM 46.8719 -111.0642 86° East 488 562 36,900  Level Salt Lake Center
05:04PM 46.8847 -110.8308 85° East 486 559 37,000  Climbing Salt Lake Center
05:05PM 46.8950 -110.6406 85° East 477 549 37,000  Level Salt Lake Center
05:06PM 46.9017 -110.4511 87° East 473 544 37,000 -60 Level Salt Lake Center
05:08PM 46.9125 -110.2547 85° East 483 556 36,900  Descending Salt Lake Center
05:09PM 46.9206 -110.0578 87° East 486 559 37,000  Climbing Salt Lake Center
05:10PM 46.9300 -109.8617 86° East 487 560 37,000  Level Salt Lake Center
05:11PM 46.9419 -109.6236 86° East 489 563 37,000  Level Salt Lake Center
05:12PM 46.9511 -109.4275 86° East 488 562 37,000  Level Salt Lake Center
05:13PM 46.9547 -109.2358 88° East 482 555 37,000  Level Salt Lake Center
05:14PM 46.9631 -109.0158 87° East 483 556 37,000  Level Salt Lake Center
05:15PM 46.9667 -108.8161 88° East 489 563 37,000  Level Salt Lake Center
05:16PM 46.9725 -108.6156 87° East 493 567 37,000  Level Salt Lake Center
05:17PM 46.9797 -108.4169 87° East 492 566 37,000  Level Salt Lake Center
05:18PM 46.9878 -108.2019 87° East 494 568 37,000  Level Salt Lake Center
05:19PM 46.9969 -108.0022 86° East 493 567 37,000  Level Salt Lake Center
05:20PM 47.0022 -107.7761 88° East 493 567 37,000  Level Salt Lake Center
05:21PM 47.0069 -107.5839 88° East 493 567 37,000  Level Salt Lake Center
05:22PM 47.0108 -107.3903 88° East 496 571 37,000  Level Salt Lake Center
05:23PM 47.0153 -107.1656 88° East 495 570 37,000  Level Salt Lake Center
05:24PM 47.0189 -106.9714 88° East 496 571 37,000  Level Salt Lake Center
05:25PM 47.0225 -106.7422 89° East 502 578 37,000  Level Salt Lake Center
05:26PM 47.0256 -106.5444 89° East 505 581 37,000  Level Salt Lake Center
05:27PM 47.0278 -106.3094 89° East 513 590 37,000  Level Salt Lake Center
05:28PM 47.0314 -106.1081 88° East 511 588 37,000  Level Salt Lake Center
05:29PM 47.0317 -105.9011 90° East 510 587 37,000 -660 Level Salt Lake Center
05:31PM 47.0358 -105.4944 89° East 502 578 35,000 -660 Descending Salt Lake Center
05:32PM 47.0350 -105.2883 90° East 504 580 35,000  Level Salt Lake Center
05:33PM 47.0358 -105.0450 90° East 503 579 35,000  Level Salt Lake Center
05:34PM 47.0356 -104.8406 90° East 503 579 35,000  Level Salt Lake Center
05:35PM 47.0353 -104.6314 90° East 510 587 35,000  Level Salt Lake Center
05:36PM 47.0350 -104.4253 90° East 512 589 35,000  Level Salt Lake Center
05:37PM 47.0333 -104.2169 91° East 513 590 35,000  Level Salt Lake Center
05:38PM 47.0328 -103.9736 90° East 509 586 35,000  Level Salt Lake Center
05:40PM 47.0306 -103.7692 91° East 507 583 35,000  Level Salt Lake Center
05:41PM 47.0292 -103.5667 91° East 505 581 35,000  Level Salt Lake Center
05:41PM 47.0289 -103.4858 90° East 503 579 35,000 -120 Level Minneapolis Center
05:42PM 47.0272 -103.2792 91° East 508 585 34,900  Descending Minneapolis Center
05:43PM 47.0228 -103.0336 91° East 508 585 35,000  Climbing Minneapolis Center
05:44PM 47.0214 -102.8269 90° East 508 585 35,000  Level Minneapolis Center
05:45PM 47.0169 -102.6267 92° East 502 578 35,000  Level Minneapolis Center
05:46PM 47.0108 -102.3867 92° East 496 571 35,000  Level Minneapolis Center
05:47PM 47.0069 -102.1867 92° East 494 568 35,000  Level Minneapolis Center
05:48PM 47.0017 -101.9839 92° East 497 572 35,000  Level Minneapolis Center
05:49PM 46.9956 -101.7792 92° East 502 578 35,000  Level Minneapolis Center
05:50PM 46.9881 -101.5492 93° East 505 581 35,000  Level Minneapolis Center
05:51PM 46.9817 -101.3400 92° East 510 587 35,000  Level Minneapolis Center
05:52PM 46.9753 -101.1314 92° East 511 588 35,000  Level Minneapolis Center
05:53PM 46.9689 -100.9222 92° East 513 590 35,000  Level Minneapolis Center
05:54PM 46.9600 -100.7142 94° East 513 590 35,000  Level Minneapolis Center
05:56PM 46.9514 -100.5142 94° East 505 581 35,000  Level Minneapolis Center
05:57PM 46.9414 -100.2536 93° East 514 592 35,000  Level Minneapolis Center
05:58PM 46.9347 -100.0522 93° East 508 585 35,000  Level Minneapolis Center
05:59PM 46.9258 -99.8478 94° East 505 581 35,000  Level Minneapolis Center
06:00PM 46.9158 -99.6431 94° East 506 582 35,000  Level Minneapolis Center
06:01PM 46.9069 -99.4425 94° East 503 579 35,000  Level Minneapolis Center
06:02PM 46.8969 -99.2386 94° East 503 579 35,000  Level Minneapolis Center
06:03PM 46.8842 -98.9939 94° East 506 582 35,000  Level Minneapolis Center
06:04PM 46.8744 -98.7886 94° East 509 586 35,000  Level Minneapolis Center
06:05PM 46.8628 -98.5775 95° East 518 596 35,000  Level Minneapolis Center
06:06PM 46.8506 -98.3697 95° East 520 598 35,000  Level Minneapolis Center
06:07PM 46.8389 -98.1625 95° East 518 596 35,000  Level Minneapolis Center
06:08PM 46.8242 -97.9142 95° East 517 595 35,000  Level Minneapolis Center
06:09PM 46.8117 -97.7089 95° East 514 592 35,000  Level Minneapolis Center
06:10PM 46.7981 -97.5103 96° East 504 580 35,000  Level Minneapolis Center
06:11PM 46.7853 -97.3106 95° East 500 575 35,000  Level Minneapolis Center
06:12PM 46.7717 -97.1133 96° East 495 570 35,000  Level Minneapolis Center
06:13PM 46.7533 -96.8744 96° East 496 571 35,000  Level Minneapolis Center
06:14PM 46.7031 -96.6889 112° Southeast 498 573 35,000  Level Minneapolis Center
06:15PM 46.6486 -96.5036 113° Southeast 499 574 35,000  Level Minneapolis Center
06:16PM 46.5925 -96.3186 114° Southeast 501 577 35,000  Level Minneapolis Center
06:17PM 46.5367 -96.1350 114° Southeast 499 574 35,000  Level Minneapolis Center
06:18PM 46.4808 -95.9547 114° Southeast 496 571 35,000  Level Minneapolis Center
06:19PM 46.4175 -95.7494 114° Southeast 490 564 35,000  Level Minneapolis Center
06:20PM 46.3611 -95.5689 114° Southeast 492 566 35,000 -540 Level Minneapolis Center
06:21PM 46.3069 -95.3947 114° Southeast 493 567 34,000 -1,740 Descending Minneapolis Center
06:22PM 46.2392 -95.1814 115° Southeast 490 564 31,500 -2,040 Descending Minneapolis Center
06:23PM 46.1886 -95.0244 115° Southeast 494 568 29,800 -2,040 Descending Minneapolis Center
06:24PM 46.1153 -94.7986 115° Southeast 516 594 27,400 -2,160 Descending Minneapolis Center
06:26PM 46.0553 -94.6131 115° Southeast 515 593 25,400 -1,680 Descending Minneapolis Center
06:27PM 45.9961 -94.4317 115° Southeast 505 581 24,000 -1,440 Descending Minneapolis Center
06:28PM 45.9394 -94.2564 115° Southeast 490 564 22,500 -2,040 Descending Minneapolis Center
06:29PM 45.8808 -94.0808 116° Southeast 488 562 19,900 -2,640 Descending Minneapolis Center
06:30PM 45.8142 -93.8803 115° Southeast 474 545 17,100 -2,460 Descending Minneapolis Center
06:31PM 45.7272 -93.7636 137° Southeast 437 503 14,900 -2,160 Descending Minneapolis Center
06:32PM 45.6311 -93.6711 146° Southeast 415 478 12,700 -1,920 Descending Minneapolis Center
06:33PM 45.5386 -93.5872 148° Southeast 396 456 11,000 -840 Descending Minneapolis Center
06:34PM 45.4389 -93.5303 158° South 389 448 11,000 -60 Level Minneapolis Center
06:35PM 45.3394 -93.4831 162° South 375 432 10,900 -960 Descending Minneapolis Center
06:36PM 45.2389 -93.4719 176° South 300 345 9,100 -1,920 Descending Minneapolis Center
06:37PM 45.1647 -93.4608 174° South 271 312 6,900 -2,040 Descending Minneapolis Center
06:38PM 45.0961 -93.4544 176° South 251 289 4,900 -1,440 Descending Minneapolis Center
06:39PM 45.0339 -93.4197 158° South 245 282 4,000 -900 Descending Minneapolis Center